sensor_id;sensor_type;location;lat;lon;timestamp;pressure;altitude;pressure_sealevel;temperature;humidity
49585;BME280;35491;49.142;9.210;2023-02-12T00:00:03;101927.53;;;6.76;65.96
49585;BME280;35491;49.142;9.210;2023-02-12T00:01:13;101927.44;;;6.77;65.66
49585;BME280;35491;49.142;9.210;2023-02-12T00:02:22;101925.50;;;6.81;65.57
49585;BME280;35491;49.142;9.210;2023-02-12T00:03:28;101922.72;;;6.84;65.63
49585;BME280;35491;49.142;9.210;2023-02-12T00:04:36;101926.31;;;6.83;65.67
49585;BME280;35491;49.142;9.210;2023-02-12T00:05:43;101922.44;;;6.71;65.92
49585;BME280;35491;49.142;9.210;2023-02-12T00:06:47;101924.41;;;6.67;65.96
49585;BME280;35491;49.142;9.210;2023-02-12T00:07:52;101930.63;;;6.66;65.92
49585;BME280;35491;49.142;9.210;2023-02-12T00:08:55;101931.44;;;6.68;66.04
49585;BME280;35491;49.142;9.210;2023-02-12T00:10:08;101931.50;;;6.67;66.02
49585;BME280;35491;49.142;9.210;2023-02-12T00:11:43;101932.72;;;6.60;66.32
49585;BME280;35491;49.142;9.210;2023-02-12T00:14:33;101931.16;;;6.55;66.81
49585;BME280;35491;49.142;9.210;2023-02-12T00:15:44;101931.16;;;6.55;66.73
49585;BME280;35491;49.142;9.210;2023-02-12T00:18:32;101934.22;;;6.65;66.25
49585;BME280;35491;49.142;9.210;2023-02-12T00:20:04;101934.00;;;6.70;66.27
49585;BME280;35491;49.142;9.210;2023-02-12T00:23:08;101937.72;;;6.85;65.61
49585;BME280;35491;49.142;9.210;2023-02-12T00:27:15;101931.97;;;6.94;65.39
49585;BME280;35491;49.142;9.210;2023-02-12T00:28:20;101938.13;;;6.95;65.15
49585;BME280;35491;49.142;9.210;2023-02-12T00:29:29;101931.81;;;6.97;65.19
49585;BME280;35491;49.142;9.210;2023-02-12T00:30:33;101937.19;;;6.96;65.48
49585;BME280;35491;49.142;9.210;2023-02-12T00:31:43;101939.84;;;6.96;65.35
49585;BME280;35491;49.142;9.210;2023-02-12T00:33:03;101936.22;;;6.98;65.33
49585;BME280;35491;49.142;9.210;2023-02-12T00:34:17;101929.00;;;7.00;65.39
49585;BME280;35491;49.142;9.210;2023-02-12T00:35:22;101930.72;;;7.01;65.37
49585;BME280;35491;49.142;9.210;2023-02-12T00:36:24;101934.16;;;7.03;65.25
49585;BME280;35491;49.142;9.210;2023-02-12T00:37:28;101938.00;;;6.98;65.15
49585;BME280;35491;49.142;9.210;2023-02-12T00:38:32;101933.13;;;6.89;65.62
49585;BME280;35491;49.142;9.210;2023-02-12T00:39:36;101934.44;;;6.80;65.92
49585;BME280;35491;49.142;9.210;2023-02-12T00:40:37;101940.03;;;6.74;66.20
49585;BME280;35491;49.142;9.210;2023-02-12T00:41:41;101927.06;;;6.67;66.26
49585;BME280;35491;49.142;9.210;2023-02-12T00:42:42;101928.91;;;6.65;66.67
49585;BME280;35491;49.142;9.210;2023-02-12T00:43:59;101936.09;;;6.63;66.57
49585;BME280;35491;49.142;9.210;2023-02-12T00:45:03;101932.50;;;6.64;66.45
49585;BME280;35491;49.142;9.210;2023-02-12T00:47:17;101929.06;;;6.62;66.48
49585;BME280;35491;49.142;9.210;2023-02-12T00:48:18;101933.44;;;6.63;66.51
49585;BME280;35491;49.142;9.210;2023-02-12T00:49:22;101936.09;;;6.63;66.58
49585;BME280;35491;49.142;9.210;2023-02-12T00:50:23;101932.38;;;6.67;66.49
49585;BME280;35491;49.142;9.210;2023-02-12T00:52:50;101915.84;;;6.80;65.96
49585;BME280;35491;49.142;9.210;2023-02-12T00:54:09;101933.44;;;6.82;65.76
49585;BME280;35491;49.142;9.210;2023-02-12T00:55:13;101938.78;;;6.81;65.93
49585;BME280;35491;49.142;9.210;2023-02-12T00:56:15;101931.69;;;6.81;65.73
49585;BME280;35491;49.142;9.210;2023-02-12T00:57:19;101938.03;;;6.79;65.64
49585;BME280;35491;49.142;9.210;2023-02-12T00:58:21;101931.44;;;6.68;66.00
49585;BME280;35491;49.142;9.210;2023-02-12T00:59:25;101928.06;;;6.65;66.27
49585;BME280;35491;49.142;9.210;2023-02-12T01:01:59;101936.47;;;6.55;66.61
49585;BME280;35491;49.142;9.210;2023-02-12T01:03:08;101928.06;;;6.46;67.05
49585;BME280;35491;49.142;9.210;2023-02-12T01:04:12;101925.53;;;6.43;67.38
49585;BME280;35491;49.142;9.210;2023-02-12T01:05:15;101925.84;;;6.36;67.69
49585;BME280;35491;49.142;9.210;2023-02-12T01:09:24;101938.91;;;6.22;68.28
49585;BME280;35491;49.142;9.210;2023-02-12T01:12:01;101941.59;;;6.20;68.06
49585;BME280;35491;49.142;9.210;2023-02-12T01:13:02;101938.94;;;6.20;68.27
49585;BME280;35491;49.142;9.210;2023-02-12T01:14:06;101943.41;;;6.20;68.38
49585;BME280;35491;49.142;9.210;2023-02-12T01:15:08;101947.50;;;6.27;68.21
49585;BME280;35491;49.142;9.210;2023-02-12T01:16:13;101944.13;;;6.23;68.20
49585;BME280;35491;49.142;9.210;2023-02-12T01:17:24;101945.16;;;6.21;68.32
49585;BME280;35491;49.142;9.210;2023-02-12T01:18:28;101948.31;;;6.29;68.00
49585;BME280;35491;49.142;9.210;2023-02-12T01:19:31;101945.53;;;6.32;68.05
49585;BME280;35491;49.142;9.210;2023-02-12T01:20:34;101939.34;;;6.32;68.16
49585;BME280;35491;49.142;9.210;2023-02-12T01:21:52;101946.28;;;6.34;67.98
49585;BME280;35491;49.142;9.210;2023-02-12T01:22:56;101942.78;;;6.34;68.11
49585;BME280;35491;49.142;9.210;2023-02-12T01:25:20;101942.31;;;6.24;68.50
49585;BME280;35491;49.142;9.210;2023-02-12T01:26:27;101940.75;;;6.20;68.53
49585;BME280;35491;49.142;9.210;2023-02-12T01:27:31;101937.72;;;6.08;68.72
49585;BME280;35491;49.142;9.210;2023-02-12T01:28:34;101937.72;;;6.08;69.02
49585;BME280;35491;49.142;9.210;2023-02-12T01:29:38;101945.81;;;6.05;69.12
49585;BME280;35491;49.142;9.210;2023-02-12T01:30:40;101950.34;;;6.03;69.28
49585;BME280;35491;49.142;9.210;2023-02-12T01:31:44;101941.19;;;6.11;69.22
49585;BME280;35491;49.142;9.210;2023-02-12T01:33:56;101944.75;;;6.09;68.91
49585;BME280;35491;49.142;9.210;2023-02-12T01:35:01;101945.81;;;6.05;69.20
49585;BME280;35491;49.142;9.210;2023-02-12T01:36:05;101937.59;;;6.12;69.09
49585;BME280;35491;49.142;9.210;2023-02-12T01:37:15;101940.50;;;6.05;69.08
49585;BME280;35491;49.142;9.210;2023-02-12T01:38:18;101935.16;;;6.07;69.25
49585;BME280;35491;49.142;9.210;2023-02-12T01:40:30;101940.75;;;6.20;68.56
49585;BME280;35491;49.142;9.210;2023-02-12T01:41:32;101944.94;;;6.26;68.34
49585;BME280;35491;49.142;9.210;2023-02-12T01:42:36;101939.53;;;6.27;68.26
49585;BME280;35491;49.142;9.210;2023-02-12T01:43:37;101941.84;;;6.35;68.30
49585;BME280;35491;49.142;9.210;2023-02-12T01:44:42;101949.81;;;6.35;67.78
49585;BME280;35491;49.142;9.210;2023-02-12T01:45:52;101946.28;;;6.34;68.07
49585;BME280;35491;49.142;9.210;2023-02-12T01:46:57;101942.44;;;6.42;67.87
49585;BME280;35491;49.142;9.210;2023-02-12T01:48:00;101937.97;;;6.42;67.64
49585;BME280;35491;49.142;9.210;2023-02-12T01:49:05;101943.06;;;6.47;67.42
49585;BME280;35491;49.142;9.210;2023-02-12T01:50:17;101936.91;;;6.46;67.43
49585;BME280;35491;49.142;9.210;2023-02-12T01:51:23;101934.72;;;6.35;67.77
49585;BME280;35491;49.142;9.210;2023-02-12T01:52:35;101934.00;;;6.32;67.68
49585;BME280;35491;49.142;9.210;2023-02-12T01:53:41;101939.34;;;6.32;67.74
49585;BME280;35491;49.142;9.210;2023-02-12T01:54:47;101930.66;;;6.28;67.93
49585;BME280;35491;49.142;9.210;2023-02-12T01:55:52;101931.88;;;6.21;68.04
49585;BME280;35491;49.142;9.210;2023-02-12T01:56:58;101931.19;;;6.16;68.48
49585;BME280;35491;49.142;9.210;2023-02-12T01:58:06;101933.28;;;6.09;68.91
49585;BME280;35491;49.142;9.210;2023-02-12T01:59:09;101936.00;;;6.07;68.96
49585;BME280;35491;49.142;9.210;2023-02-12T02:00:20;101923.66;;;6.06;69.08
49585;BME280;35491;49.142;9.210;2023-02-12T02:01:22;101926.09;;;6.11;68.66
49585;BME280;35491;49.142;9.210;2023-02-12T02:02:30;101916.84;;;6.20;68.51
49585;BME280;35491;49.142;9.210;2023-02-12T02:03:34;101922.09;;;6.21;68.33
49585;BME280;35491;49.142;9.210;2023-02-12T02:04:41;101932.13;;;6.15;68.51
49585;BME280;35491;49.142;9.210;2023-02-12T02:05:58;101919.84;;;6.12;68.64
49585;BME280;35491;49.142;9.210;2023-02-12T02:07:06;101928.69;;;6.13;69.07
49585;BME280;35491;49.142;9.210;2023-02-12T02:08:11;101927.78;;;6.14;68.75
49585;BME280;35491;49.142;9.210;2023-02-12T02:09:17;101932.00;;;6.18;68.64
49585;BME280;35491;49.142;9.210;2023-02-12T02:11:33;101937.44;;;6.15;68.86
49585;BME280;35491;49.142;9.210;2023-02-12T02:12:51;101930.28;;;6.17;68.77
49585;BME280;35491;49.142;9.210;2023-02-12T02:14:07;101936.59;;;6.14;68.81
49585;BME280;35491;49.142;9.210;2023-02-12T02:15:23;101934.34;;;6.05;69.20
49585;BME280;35491;49.142;9.210;2023-02-12T02:16:29;101927.19;;;6.07;69.21
49585;BME280;35491;49.142;9.210;2023-02-12T02:17:34;101928.91;;;6.08;68.96
49585;BME280;35491;49.142;9.210;2023-02-12T02:18:41;101926.91;;;6.13;69.12
49585;BME280;35491;49.142;9.210;2023-02-12T02:20:05;101924.25;;;6.13;69.06
49585;BME280;35491;49.142;9.210;2023-02-12T02:21:16;101921.50;;;6.15;68.79
49585;BME280;35491;49.142;9.210;2023-02-12T02:22:24;101921.50;;;6.15;68.93
49585;BME280;35491;49.142;9.210;2023-02-12T02:26:27;101910.75;;;6.18;68.91
49585;BME280;35491;49.142;9.210;2023-02-12T02:27:38;101921.28;;;6.19;68.85
49585;BME280;35491;49.142;9.210;2023-02-12T02:28:58;101917.78;;;6.19;68.59
49585;BME280;35491;49.142;9.210;2023-02-12T02:30:24;101916.56;;;6.26;68.49
49585;BME280;35491;49.142;9.210;2023-02-12T02:31:32;101922.25;;;6.37;68.30
49585;BME280;35491;49.142;9.210;2023-02-12T02:32:37;101916.81;;;6.40;68.02
49585;BME280;35491;49.142;9.210;2023-02-12T02:33:47;101916.50;;;6.47;67.84
49585;BME280;35491;49.142;9.210;2023-02-12T02:34:53;101911.97;;;6.49;67.61
49585;BME280;35491;49.142;9.210;2023-02-12T02:36:00;101920.81;;;6.49;67.69
49585;BME280;35491;49.142;9.210;2023-02-12T02:37:07;101923.63;;;6.46;67.42
49585;BME280;35491;49.142;9.210;2023-02-12T02:38:18;101923.69;;;6.45;67.92
49585;BME280;35491;49.142;9.210;2023-02-12T02:39:24;101922.81;;;6.44;67.53
49585;BME280;35491;49.142;9.210;2023-02-12T02:40:32;101915.50;;;6.49;67.42
49585;BME280;35491;49.142;9.210;2023-02-12T02:41:41;101914.63;;;6.49;67.29
49585;BME280;35491;49.142;9.210;2023-02-12T02:42:52;101910.88;;;6.53;67.39
49585;BME280;35491;49.142;9.210;2023-02-12T02:43:58;101914.34;;;6.55;67.42
49585;BME280;35491;49.142;9.210;2023-02-12T02:45:06;101911.53;;;6.58;67.29
49585;BME280;35491;49.142;9.210;2023-02-12T02:46:14;101913.31;;;6.58;67.19
49585;BME280;35491;49.142;9.210;2023-02-12T02:48:23;101907.25;;;6.55;67.35
49585;BME280;35491;49.142;9.210;2023-02-12T02:49:30;101901.84;;;6.57;67.40
49585;BME280;35491;49.142;9.210;2023-02-12T02:50:34;101908.22;;;6.53;67.48
49585;BME280;35491;49.142;9.210;2023-02-12T02:51:42;101906.38;;;6.55;67.57
49585;BME280;35491;49.142;9.210;2023-02-12T02:52:46;101905.44;;;6.56;67.13
49585;BME280;35491;49.142;9.210;2023-02-12T02:53:53;101909.16;;;6.52;67.62
49585;BME280;35491;49.142;9.210;2023-02-12T02:54:59;101905.88;;;6.47;67.87
49585;BME280;35491;49.142;9.210;2023-02-12T02:56:06;101912.13;;;6.46;67.81
49585;BME280;35491;49.142;9.210;2023-02-12T02:57:15;101916.63;;;6.44;67.95
49585;BME280;35491;49.142;9.210;2023-02-12T02:58:21;101920.22;;;6.43;67.80
49585;BME280;35491;49.142;9.210;2023-02-12T02:59:24;101916.63;;;6.44;67.90
49585;BME280;35491;49.142;9.210;2023-02-12T03:00:31;101921.03;;;6.45;67.88
49585;BME280;35491;49.142;9.210;2023-02-12T03:01:38;101921.22;;;6.40;67.85
49585;BME280;35491;49.142;9.210;2023-02-12T03:02:44;101922.03;;;6.42;68.18
49585;BME280;35491;49.142;9.210;2023-02-12T03:03:48;101924.69;;;6.42;67.94
49585;BME280;35491;49.142;9.210;2023-02-12T03:04:56;101936.31;;;6.39;68.14
49585;BME280;35491;49.142;9.210;2023-02-12T03:06:00;101927.69;;;6.34;68.53
49585;BME280;35491;49.142;9.210;2023-02-12T03:07:07;101933.16;;;6.31;68.70
49585;BME280;35491;49.142;9.210;2023-02-12T03:08:11;101924.41;;;6.29;68.73
49585;BME280;35491;49.142;9.210;2023-02-12T03:09:20;101924.41;;;6.29;68.81
49585;BME280;35491;49.142;9.210;2023-02-12T03:10:26;101926.94;;;6.32;68.69
49585;BME280;35491;49.142;9.210;2023-02-12T03:11:31;101933.88;;;6.35;68.77
49585;BME280;35491;49.142;9.210;2023-02-12T03:12:37;101928.56;;;6.35;68.62
49585;BME280;35491;49.142;9.210;2023-02-12T03:13:41;101938.31;;;6.34;68.62
49585;BME280;35491;49.142;9.210;2023-02-12T03:14:47;101932.16;;;6.34;68.67
49585;BME280;35491;49.142;9.210;2023-02-12T03:15:51;101932.88;;;6.37;68.37
49585;BME280;35491;49.142;9.210;2023-02-12T03:17:01;101936.59;;;6.33;68.86
49585;BME280;35491;49.142;9.210;2023-02-12T03:18:04;101940.22;;;6.32;68.87
49585;BME280;35491;49.142;9.210;2023-02-12T03:19:12;101930.44;;;6.33;68.73
49585;BME280;35491;49.142;9.210;2023-02-12T03:20:16;101938.28;;;6.36;68.66
49585;BME280;35491;49.142;9.210;2023-02-12T03:21:23;101933.81;;;6.36;68.49
49585;BME280;35491;49.142;9.210;2023-02-12T03:22:26;101928.78;;;6.30;68.96
49585;BME280;35491;49.142;9.210;2023-02-12T03:23:31;101928.78;;;6.30;69.15
49585;BME280;35491;49.142;9.210;2023-02-12T03:24:36;101927.13;;;6.28;69.06
49585;BME280;35491;49.142;9.210;2023-02-12T03:25:43;101938.69;;;6.27;69.18
49585;BME280;35491;49.142;9.210;2023-02-12T03:26:49;101932.59;;;6.24;69.05
49585;BME280;35491;49.142;9.210;2023-02-12T03:28:05;101933.44;;;6.25;69.35
49585;BME280;35491;49.142;9.210;2023-02-12T03:29:08;101929.72;;;6.29;69.02
49585;BME280;35491;49.142;9.210;2023-02-12T03:30:12;101926.03;;;6.32;68.92
49585;BME280;35491;49.142;9.210;2023-02-12T03:31:16;101921.44;;;6.35;68.55
49585;BME280;35491;49.142;9.210;2023-02-12T03:32:26;101921.41;;;6.37;68.53
49585;BME280;35491;49.142;9.210;2023-02-12T03:33:31;101930.31;;;6.36;68.64
49585;BME280;35491;49.142;9.210;2023-02-12T03:34:40;101922.38;;;6.34;68.76
49585;BME280;35491;49.142;9.210;2023-02-12T03:35:48;101929.38;;;6.37;68.69
49585;BME280;35491;49.142;9.210;2023-02-12T03:36:57;101919.50;;;6.39;68.66
49585;BME280;35491;49.142;9.210;2023-02-12T03:38:02;101930.31;;;6.36;68.65
49585;BME280;35491;49.142;9.210;2023-02-12T03:39:10;101923.31;;;6.33;68.77
49585;BME280;35491;49.142;9.210;2023-02-12T03:40:14;101932.38;;;6.29;68.98
49585;BME280;35491;49.142;9.210;2023-02-12T03:41:20;101923.59;;;6.27;69.11
49585;BME280;35491;49.142;9.210;2023-02-12T03:42:29;101933.44;;;6.25;69.17
49585;BME280;35491;49.142;9.210;2023-02-12T03:43:37;101935.31;;;6.23;69.22
49585;BME280;35491;49.142;9.210;2023-02-12T03:44:45;101933.59;;;6.22;69.46
49585;BME280;35491;49.142;9.210;2023-02-12T03:45:51;101928.28;;;6.22;69.05
49585;BME280;35491;49.142;9.210;2023-02-12T03:46:57;101925.63;;;6.22;69.48
49585;BME280;35491;49.142;9.210;2023-02-12T03:48:08;101925.75;;;6.19;69.66
49585;BME280;35491;49.142;9.210;2023-02-12T03:49:13;101927.63;;;6.17;69.97
49585;BME280;35491;49.142;9.210;2023-02-12T03:50:20;101929.47;;;6.15;69.50
49585;BME280;35491;49.142;9.210;2023-02-12T03:51:27;101940.16;;;6.13;69.80
49585;BME280;35491;49.142;9.210;2023-02-12T03:52:32;101937.44;;;6.15;69.67
49585;BME280;35491;49.142;9.210;2023-02-12T03:53:37;101939.16;;;6.16;69.62
49585;BME280;35491;49.142;9.210;2023-02-12T03:54:38;101930.44;;;6.14;69.77
49585;BME280;35491;49.142;9.210;2023-02-12T03:55:43;101934.78;;;6.15;69.62
49585;BME280;35491;49.142;9.210;2023-02-12T03:56:47;101937.38;;;6.16;69.68
49585;BME280;35491;49.142;9.210;2023-02-12T03:57:55;101929.63;;;6.12;70.07
49585;BME280;35491;49.142;9.210;2023-02-12T03:58:58;101934.94;;;6.12;70.08
49585;BME280;35491;49.142;9.210;2023-02-12T04:00:04;101929.56;;;6.13;69.74
49585;BME280;35491;49.142;9.210;2023-02-12T04:01:06;101940.16;;;6.13;69.85
49585;BME280;35491;49.142;9.210;2023-02-12T04:02:11;101939.44;;;6.09;70.42
49585;BME280;35491;49.142;9.210;2023-02-12T04:03:15;101934.22;;;6.08;70.49
49585;BME280;35491;49.142;9.210;2023-02-12T04:04:20;101937.72;;;6.08;70.18
49585;BME280;35491;49.142;9.210;2023-02-12T04:05:22;101937.81;;;6.07;70.30
49585;BME280;35491;49.142;9.210;2023-02-12T04:06:26;101941.25;;;6.09;70.15
49585;BME280;35491;49.142;9.210;2023-02-12T04:07:28;101947.53;;;6.06;70.14
49585;BME280;35491;49.142;9.210;2023-02-12T04:08:32;101936.06;;;6.06;70.16
49585;BME280;35491;49.142;9.210;2023-02-12T04:09:35;101938.84;;;6.03;70.46
49585;BME280;35491;49.142;9.210;2023-02-12T04:10:42;101946.81;;;6.03;70.52
49585;BME280;35491;49.142;9.210;2023-02-12T04:11:51;101947.75;;;6.02;70.47
49585;BME280;35491;49.142;9.210;2023-02-12T04:13:00;101950.28;;;6.05;70.31
49585;BME280;35491;49.142;9.210;2023-02-12T04:14:13;101944.84;;;6.08;70.02
49585;BME280;35491;49.142;9.210;2023-02-12T04:15:22;101944.75;;;6.09;70.01
49585;BME280;35491;49.142;9.210;2023-02-12T04:16:28;101945.63;;;6.10;70.18
49585;BME280;35491;49.142;9.210;2023-02-12T04:17:36;101943.84;;;6.11;69.85
49585;BME280;35491;49.142;9.210;2023-02-12T04:18:49;101936.66;;;6.13;69.92
49585;BME280;35491;49.142;9.210;2023-02-12T04:19:53;101938.31;;;6.15;70.06
49585;BME280;35491;49.142;9.210;2023-02-12T04:21:03;101948.06;;;6.15;70.00
49585;BME280;35491;49.142;9.210;2023-02-12T04:22:10;101949.78;;;6.16;69.87
49585;BME280;35491;49.142;9.210;2023-02-12T04:23:21;101947.13;;;6.16;69.62
49585;BME280;35491;49.142;9.210;2023-02-12T04:24:27;101947.09;;;6.17;69.90
49585;BME280;35491;49.142;9.210;2023-02-12T04:25:40;101951.81;;;6.11;70.51
49585;BME280;35491;49.142;9.210;2023-02-12T04:26:46;101954.34;;;6.14;70.26
49585;BME280;35491;49.142;9.210;2023-02-12T04:27:54;101950.72;;;6.15;69.91
49585;BME280;35491;49.142;9.210;2023-02-12T04:28:58;101949.94;;;6.13;70.04
49585;BME280;35491;49.142;9.210;2023-02-12T04:30:10;101955.38;;;6.09;70.40
49585;BME280;35491;49.142;9.210;2023-02-12T04:31:16;101959.09;;;6.05;70.48
49585;BME280;35491;49.142;9.210;2023-02-12T04:32:24;101959.09;;;6.05;70.79
49585;BME280;35491;49.142;9.210;2023-02-12T04:33:31;101957.41;;;6.04;70.63
49585;BME280;35491;49.142;9.210;2023-02-12T04:34:42;101959.09;;;6.05;70.64
49585;BME280;35491;49.142;9.210;2023-02-12T04:35:47;101957.31;;;6.06;70.40
49585;BME280;35491;49.142;9.210;2023-02-12T04:36:53;101958.03;;;6.09;70.29
49585;BME280;35491;49.142;9.210;2023-02-12T04:38:01;101955.25;;;6.13;70.37
49585;BME280;35491;49.142;9.210;2023-02-12T04:39:05;101944.47;;;6.16;70.06
49585;BME280;35491;49.142;9.210;2023-02-12T04:40:12;101957.75;;;6.16;69.87
49585;BME280;35491;49.142;9.210;2023-02-12T04:41:14;101956.81;;;6.17;70.12
49585;BME280;35491;49.142;9.210;2023-02-12T04:42:19;101963.88;;;6.18;69.92
49585;BME280;35491;49.142;9.210;2023-02-12T04:43:27;101961.13;;;6.19;69.75
49585;BME280;35491;49.142;9.210;2023-02-12T04:44:32;101963.66;;;6.22;70.02
49585;BME280;35491;49.142;9.210;2023-02-12T04:45:34;101961.00;;;6.22;69.63
49585;BME280;35491;49.142;9.210;2023-02-12T04:46:39;101963.75;;;6.21;69.96
49585;BME280;35491;49.142;9.210;2023-02-12T04:47:41;101963.78;;;6.19;70.04
49585;BME280;35491;49.142;9.210;2023-02-12T04:48:49;101962.84;;;6.20;70.00
49585;BME280;35491;49.142;9.210;2023-02-12T04:49:55;101953.91;;;6.23;69.85
49585;BME280;35491;49.142;9.210;2023-02-12T04:50:59;101961.88;;;6.23;69.78
49585;BME280;35491;49.142;9.210;2023-02-12T04:52:01;101965.31;;;6.25;69.99
49585;BME280;35491;49.142;9.210;2023-02-12T04:53:05;101958.25;;;6.24;69.96
49585;BME280;35491;49.142;9.210;2023-02-12T04:54:06;101960.00;;;6.25;69.79
49585;BME280;35491;49.142;9.210;2023-02-12T04:55:10;101960.00;;;6.25;69.80
49585;BME280;35491;49.142;9.210;2023-02-12T04:56:12;101958.25;;;6.24;70.04
49585;BME280;35491;49.142;9.210;2023-02-12T04:57:16;101957.63;;;6.19;70.32
49585;BME280;35491;49.142;9.210;2023-02-12T04:58:18;101962.09;;;6.18;70.27
49585;BME280;35491;49.142;9.210;2023-02-12T04:59:22;101963.88;;;6.18;70.19
49585;BME280;35491;49.142;9.210;2023-02-12T05:00:24;101954.97;;;6.19;70.11
49585;BME280;35491;49.142;9.210;2023-02-12T05:01:28;101962.09;;;6.18;70.11
49585;BME280;35491;49.142;9.210;2023-02-12T05:02:30;101952.41;;;6.17;70.06
49585;BME280;35491;49.142;9.210;2023-02-12T05:03:36;101962.84;;;6.20;70.29
49585;BME280;35491;49.142;9.210;2023-02-12T05:04:47;101950.50;;;6.19;70.26
49585;BME280;35491;49.142;9.210;2023-02-12T05:06:01;101957.53;;;6.20;70.11
49585;BME280;35491;49.142;9.210;2023-02-12T05:07:06;101953.13;;;6.21;70.06
49585;BME280;35491;49.142;9.210;2023-02-12T05:08:14;101957.53;;;6.20;70.18
49585;BME280;35491;49.142;9.210;2023-02-12T05:09:20;101955.91;;;6.18;70.44
49585;BME280;35491;49.142;9.210;2023-02-12T05:10:29;101954.25;;;6.15;70.48
49585;BME280;35491;49.142;9.210;2023-02-12T05:11:36;101947.13;;;6.16;70.13
49585;BME280;35491;49.142;9.210;2023-02-12T05:12:48;101954.97;;;6.19;70.46
49585;BME280;35491;49.142;9.210;2023-02-12T05:14:02;101952.22;;;6.20;70.01
49585;BME280;35491;49.142;9.210;2023-02-12T05:15:10;101957.41;;;6.23;70.10
49585;BME280;35491;49.142;9.210;2023-02-12T05:16:19;101945.88;;;6.24;70.09
49585;BME280;35491;49.142;9.210;2023-02-12T05:17:23;101944.94;;;6.26;69.98
49585;BME280;35491;49.142;9.210;2023-02-12T05:18:29;101940.63;;;6.23;69.98
49585;BME280;35491;49.142;9.210;2023-02-12T05:19:32;101951.31;;;6.21;70.37
49585;BME280;35491;49.142;9.210;2023-02-12T05:20:38;101946.19;;;6.17;70.26
49585;BME280;35491;49.142;9.210;2023-02-12T05:21:43;101952.41;;;6.17;70.23
49585;BME280;35491;49.142;9.210;2023-02-12T05:22:51;101959.47;;;6.17;70.21
49585;BME280;35491;49.142;9.210;2023-02-12T05:23:55;101948.94;;;6.15;70.26
49585;BME280;35491;49.142;9.210;2023-02-12T05:25:01;101954.34;;;6.14;70.27
49585;BME280;35491;49.142;9.210;2023-02-12T05:26:04;101952.66;;;6.11;70.54
49585;BME280;35491;49.142;9.210;2023-02-12T05:27:10;101957.13;;;6.11;70.85
49585;BME280;35491;49.142;9.210;2023-02-12T05:28:13;101957.19;;;6.09;70.64
49585;BME280;35491;49.142;9.210;2023-02-12T05:29:20;101953.56;;;6.10;70.74
49585;BME280;35491;49.142;9.210;2023-02-12T05:30:23;101951.88;;;6.09;70.71
49585;BME280;35491;49.142;9.210;2023-02-12T05:31:27;101950.34;;;6.03;71.05
49585;BME280;35491;49.142;9.210;2023-02-12T05:32:29;101960.19;;;6.01;71.08
49585;BME280;35491;49.142;9.210;2023-02-12T05:33:33;101958.50;;;5.99;71.44
49585;BME280;35491;49.142;9.210;2023-02-12T05:34:35;101947.00;;;5.98;71.29
49585;BME280;35491;49.142;9.210;2023-02-12T05:35:39;101955.81;;;6.00;70.92
49585;BME280;35491;49.142;9.210;2023-02-12T05:36:44;101959.38;;;5.99;71.15
49585;BME280;35491;49.142;9.210;2023-02-12T05:37:48;101960.97;;;6.03;71.15
49585;BME280;35491;49.142;9.210;2023-02-12T05:38:50;101952.13;;;6.03;71.12
49585;BME280;35491;49.142;9.210;2023-02-12T05:39:54;101953.78;;;6.05;70.77
49585;BME280;35491;49.142;9.210;2023-02-12T05:41:00;101955.50;;;6.06;71.00
49585;BME280;35491;49.142;9.210;2023-02-12T05:42:04;101960.69;;;6.09;70.69
49585;BME280;35491;49.142;9.210;2023-02-12T05:43:06;101956.22;;;6.10;70.74
49585;BME280;35491;49.142;9.210;2023-02-12T05:44:11;101956.38;;;6.07;71.04
49585;BME280;35491;49.142;9.210;2023-02-12T05:45:13;101958.97;;;6.08;70.76
49585;BME280;35491;49.142;9.210;2023-02-12T05:46:17;101958.13;;;6.08;70.86
49585;BME280;35491;49.142;9.210;2023-02-12T05:47:19;101960.69;;;6.09;70.73
49585;BME280;35491;49.142;9.210;2023-02-12T05:48:23;101959.97;;;6.06;70.97
49585;BME280;35491;49.142;9.210;2023-02-12T05:49:25;101961.16;;;5.99;71.30
49585;BME280;35491;49.142;9.210;2023-02-12T05:50:30;101968.41;;;5.95;71.58
49585;BME280;35491;49.142;9.210;2023-02-12T05:51:31;101960.47;;;5.93;71.77
49585;BME280;35491;49.142;9.210;2023-02-12T05:52:38;101959.56;;;5.94;71.46
49585;BME280;35491;49.142;9.210;2023-02-12T05:53:40;101961.19;;;5.97;71.34
49585;BME280;35491;49.142;9.210;2023-02-12T05:54:47;101964.69;;;5.99;71.23
49585;BME280;35491;49.142;9.210;2023-02-12T05:55:49;101966.34;;;6.02;71.05
49585;BME280;35491;49.142;9.210;2023-02-12T05:56:53;101964.69;;;5.99;71.35
49585;BME280;35491;49.142;9.210;2023-02-12T05:57:55;101964.63;;;6.01;70.99
49585;BME280;35491;49.142;9.210;2023-02-12T05:59:01;101964.69;;;5.99;71.38
49585;BME280;35491;49.142;9.210;2023-02-12T06:00:03;101966.50;;;5.97;71.31
49585;BME280;35491;49.142;9.210;2023-02-12T06:01:08;101964.88;;;5.94;71.61
49585;BME280;35491;49.142;9.210;2023-02-12T06:02:10;101964.06;;;5.92;71.75
49585;BME280;35491;49.142;9.210;2023-02-12T06:03:14;101968.41;;;5.95;71.23
49585;BME280;35491;49.142;9.210;2023-02-12T06:04:16;101970.09;;;5.96;71.62
49585;BME280;35491;49.142;9.210;2023-02-12T06:05:20;101964.94;;;5.93;71.69
49585;BME280;35491;49.142;9.210;2023-02-12T06:06:25;101975.56;;;5.93;71.83
49585;BME280;35491;49.142;9.210;2023-02-12T06:07:27;101976.47;;;5.92;71.95
49585;BME280;35491;49.142;9.210;2023-02-12T06:08:34;101970.44;;;5.88;72.01
49585;BME280;35491;49.142;9.210;2023-02-12T06:09:36;101973.31;;;5.84;72.23
49585;BME280;35491;49.142;9.210;2023-02-12T06:10:41;101968.97;;;5.81;72.57
49585;BME280;35491;49.142;9.210;2023-02-12T06:11:42;101967.19;;;5.82;72.21
49585;BME280;35491;49.142;9.210;2023-02-12T06:12:47;101978.53;;;5.85;71.85
49585;BME280;35491;49.142;9.210;2023-02-12T06:13:48;101960.75;;;5.87;71.77
49585;BME280;35491;49.142;9.210;2023-02-12T06:14:52;101958.91;;;5.89;71.94
49585;BME280;35491;49.142;9.210;2023-02-12T06:15:53;101968.53;;;5.92;71.80